createdAt,value
2023-01-19T00:01:06.034Z,13.98
2023-01-19T00:03:37.492Z,16.80
2023-01-19T00:06:09.502Z,20.50
2023-01-19T00:08:39.571Z,19.77
2023-01-19T00:11:08.969Z,16.40
2023-01-19T00:13:39.051Z,22.02
2023-01-19T00:16:09.216Z,14.27
2023-01-19T00:18:38.435Z,15.45
2023-01-19T00:21:09.195Z,20.20
2023-01-19T00:23:38.461Z,16.88
2023-01-19T00:26:09.087Z,26.65
2023-01-19T00:28:38.521Z,26.23
2023-01-19T00:31:08.030Z,17.75
2023-01-19T00:33:37.760Z,17.40
2023-01-19T00:36:09.201Z,15.52
2023-01-19T00:38:39.389Z,19.38
2023-01-19T00:41:08.954Z,15.10
2023-01-19T00:43:37.133Z,21.45
2023-01-19T00:46:06.493Z,16.45
2023-01-19T00:48:35.789Z,17.58
2023-01-19T00:51:05.115Z,15.45
2023-01-19T00:53:35.979Z,18.08
2023-01-19T00:56:05.314Z,23.02
2023-01-19T00:58:34.534Z,18.00
2023-01-19T01:01:05.212Z,15.95
2023-01-19T01:03:34.581Z,10.63
2023-01-19T01:06:04.139Z,13.00
2023-01-19T01:08:33.744Z,13.10
2023-01-19T01:11:04.497Z,22.10
2023-01-19T01:13:34.018Z,13.48
2023-01-19T01:16:03.451Z,14.73
2023-01-19T01:18:33.057Z,13.70
2023-01-19T01:21:05.504Z,17.10
2023-01-19T01:23:35.114Z,21.77
2023-01-19T01:26:06.220Z,21.15
2023-01-19T01:28:35.657Z,29.02
2023-01-19T01:31:04.912Z,20.13
2023-01-19T01:33:40.847Z,14.80
2023-01-19T01:36:11.739Z,14.25
2023-01-19T01:38:41.439Z,31.08
2023-01-19T01:41:12.266Z,24.40
2023-01-19T01:43:47.317Z,21.55
2023-01-19T01:46:17.735Z,21.55
2023-01-19T01:48:55.253Z,18.33
2023-01-19T01:51:29.899Z,15.88
2023-01-19T01:54:09.928Z,20.35
2023-01-19T01:56:44.634Z,19.08
2023-01-19T01:59:26.247Z,20.75
2023-01-19T02:02:17.653Z,22.77
2023-01-19T02:04:52.628Z,15.50
2023-01-19T02:07:45.632Z,10.27
2023-01-19T02:10:31.919Z,16.30
2023-01-19T02:13:23.611Z,12.95
2023-01-19T02:15:54.921Z,11.50
2023-01-19T02:18:25.878Z,16.08
2023-01-19T02:21:08.112Z,16.27
2023-01-19T02:23:47.644Z,15.77
2023-01-19T02:26:19.981Z,17.67
2023-01-19T02:28:52.250Z,14.70
2023-01-19T02:31:21.848Z,14.90
2023-01-19T02:33:51.468Z,15.05
2023-01-19T02:36:26.230Z,22.00
2023-01-19T02:38:59.868Z,27.10
2023-01-19T02:41:32.881Z,22.63
2023-01-19T02:44:03.072Z,25.98
2023-01-19T02:46:32.181Z,24.08
2023-01-19T02:49:02.034Z,32.58
2023-01-19T02:51:31.509Z,29.00
2023-01-19T02:54:13.302Z,22.63
2023-01-19T02:56:59.383Z,23.92
2023-01-19T02:59:44.982Z,20.92
2023-01-19T03:05:10.318Z,35.83
2023-01-19T03:07:52.815Z,22.77
2023-01-19T03:10:34.115Z,29.60
2023-01-19T03:13:12.776Z,31.15
2023-01-19T03:15:47.157Z,22.85
2023-01-19T03:18:20.288Z,27.17
2023-01-19T03:20:53.920Z,25.45
2023-01-19T03:23:27.839Z,15.57
2023-01-19T03:26:01.800Z,24.42
2023-01-19T03:28:32.453Z,20.40
2023-01-19T03:31:07.762Z,26.25
2023-01-19T03:33:42.395Z,32.88
2023-01-19T03:36:15.963Z,36.38
2023-01-19T03:38:47.952Z,34.13
2023-01-19T03:41:21.482Z,43.13
2023-01-19T03:43:52.443Z,29.55
2023-01-19T03:46:24.227Z,35.63
2023-01-19T03:48:54.669Z,31.42
2023-01-19T03:51:24.320Z,46.92
2023-01-19T03:53:53.447Z,34.80
2023-01-19T03:56:25.576Z,38.35
2023-01-19T03:58:56.227Z,37.25
2023-01-19T04:01:26.317Z,34.95
2023-01-19T04:03:55.640Z,32.40
2023-01-19T04:06:25.026Z,38.47
2023-01-19T04:08:54.335Z,35.40
2023-01-19T04:11:24.970Z,36.55
2023-01-19T04:13:54.030Z,28.27
2023-01-19T04:16:23.902Z,21.58
2023-01-19T04:18:53.164Z,22.45
2023-01-19T04:21:22.347Z,22.90
2023-01-19T04:23:51.579Z,27.48
2023-01-19T04:26:20.704Z,20.38
2023-01-19T04:28:51.284Z,22.45
2023-01-19T04:31:20.924Z,25.77
2023-01-19T04:33:50.187Z,21.38
2023-01-19T04:36:19.299Z,22.20
2023-01-19T04:38:49.116Z,26.42
2023-01-19T04:41:18.755Z,29.17
2023-01-19T04:43:48.215Z,18.48
2023-01-19T04:46:18.817Z,22.50
2023-01-19T04:48:47.979Z,29.70
2023-01-19T04:51:17.128Z,26.75
2023-01-19T04:53:46.297Z,28.73
2023-01-19T04:56:15.510Z,26.67
2023-01-19T04:58:44.857Z,11.75
2023-01-19T05:01:13.981Z,16.77
2023-01-19T05:03:44.584Z,12.20
2023-01-19T05:06:14.068Z,17.83
2023-01-19T05:08:45.287Z,19.58
2023-01-19T05:11:14.479Z,16.85
2023-01-19T05:13:43.547Z,16.73
2023-01-19T05:16:14.379Z,18.20
2023-01-19T05:18:44.982Z,20.13
2023-01-19T05:21:14.060Z,18.45
2023-01-19T05:23:43.268Z,17.67
2023-01-19T05:26:13.971Z,14.63
2023-01-19T05:28:43.068Z,17.35
2023-01-19T05:31:12.290Z,16.45
2023-01-19T05:33:41.583Z,19.27
2023-01-19T05:36:12.420Z,10.75
2023-01-19T05:38:41.669Z,9.80
2023-01-19T05:41:10.782Z,11.02
2023-01-19T05:43:39.889Z,9.60
2023-01-19T05:46:09.254Z,9.73
2023-01-19T05:48:38.815Z,9.35
2023-01-19T05:51:08.162Z,5.75
2023-01-19T05:53:38.889Z,9.05
2023-01-19T05:56:10.250Z,9.73
2023-01-19T05:58:40.985Z,9.65
2023-01-19T06:01:11.740Z,9.85
2023-01-19T06:03:41.465Z,14.32
2023-01-19T06:06:10.675Z,10.65
2023-01-19T06:08:41.214Z,11.45
2023-01-19T06:11:10.767Z,6.05
2023-01-19T06:13:42.141Z,5.13
2023-01-19T06:16:12.149Z,9.43
2023-01-19T06:18:41.277Z,11.73
2023-01-19T06:21:12.824Z,14.77
2023-01-19T06:23:43.584Z,10.13
2023-01-19T06:26:12.913Z,8.68
2023-01-19T06:28:41.954Z,13.27
2023-01-19T06:31:11.169Z,11.98
2023-01-19T06:33:40.280Z,8.60
2023-01-19T06:36:09.776Z,11.45
2023-01-19T06:38:38.790Z,7.63
2023-01-19T06:41:09.569Z,12.35
2023-01-19T06:43:38.747Z,12.35
2023-01-19T06:46:08.097Z,10.13
2023-01-19T06:48:37.201Z,8.43
2023-01-19T06:51:06.995Z,11.68
2023-01-19T06:53:36.093Z,9.70
2023-01-19T06:56:06.605Z,10.27
2023-01-19T06:58:37.801Z,10.70
2023-01-19T07:01:08.309Z,9.68
2023-01-19T07:03:39.109Z,9.73
2023-01-19T07:06:08.630Z,14.13
2023-01-19T07:08:38.658Z,13.15
2023-01-19T07:11:25.977Z,12.77
2023-01-19T07:14:00.165Z,15.30
2023-01-19T07:16:29.539Z,5.65
2023-01-19T07:18:58.730Z,11.40
2023-01-19T07:21:29.311Z,10.23
2023-01-19T07:23:58.692Z,11.85
2023-01-19T07:26:28.410Z,14.15
2023-01-19T07:28:58.975Z,11.55
2023-01-19T07:31:28.186Z,10.02
2023-01-19T07:33:57.340Z,13.95
2023-01-19T07:36:26.544Z,11.93
2023-01-19T07:38:55.647Z,6.80
2023-01-19T07:41:24.731Z,13.75
2023-01-19T07:43:54.088Z,14.00
2023-01-19T07:46:24.774Z,11.77
2023-01-19T07:48:53.882Z,11.48
2023-01-19T07:51:22.973Z,10.85
2023-01-19T07:53:52.900Z,10.98
2023-01-19T07:56:22.851Z,11.77
2023-01-19T07:58:52.908Z,13.35
2023-01-19T08:01:22.100Z,14.40
2023-01-19T08:03:53.080Z,18.55
2023-01-19T08:06:24.164Z,9.57
2023-01-19T08:08:53.635Z,5.00
2023-01-19T08:11:22.767Z,12.68
2023-01-19T08:13:52.160Z,11.00
2023-01-19T08:16:21.311Z,14.15
2023-01-19T08:18:52.040Z,16.48
2023-01-19T08:21:21.120Z,13.38
2023-01-19T08:23:54.932Z,12.52
2023-01-19T08:26:30.268Z,12.15
2023-01-19T08:29:00.876Z,14.30
2023-01-19T08:31:30.482Z,10.57
2023-01-19T08:34:01.236Z,10.48
2023-01-19T08:36:30.808Z,14.30
2023-01-19T08:38:59.909Z,16.38
2023-01-19T08:41:29.050Z,18.63
2023-01-19T08:43:58.165Z,9.30
2023-01-19T08:46:27.596Z,12.57
2023-01-19T08:48:56.781Z,14.45
